Time;durP1;ratioP1;P1;durP2;ratioP2;P2;SDS_P1;SDS_P2;PMS_P1;PMS_P2;Temp;Humidity;BMP_temperature;BMP_pressure;BME280_temperature;BME280_humidity;BME280_pressure;Samples;Min_cycle;Max_cycle;Signal;HPM_P1;HPM_P2
2022/12/13 00:01:35;;;;;;;39.70;23.15;;;-4.80;99.90;;;;;;4998929;28;20775;-65
2022/12/13 00:04:03;;;;;;;40.88;24.42;;;-4.80;99.90;;;;;;4998253;28;20497;-65
2022/12/13 00:06:29;;;;;;;41.45;23.58;;;-4.80;99.90;;;;;;4999401;28;20504;-65
2022/12/13 00:08:56;;;;;;;45.95;24.30;;;-4.90;99.90;;;;;;4999854;28;20117;-65
2022/12/13 00:11:21;;;;;;;41.05;22.45;;;-4.90;99.90;;;;;;4994357;28;20046;-64
2022/12/13 00:13:47;;;;;;;42.55;24.05;;;-4.90;99.90;;;;;;5033402;28;20482;-65
2022/12/13 00:16:16;;;;;;;40.40;23.90;;;-4.90;99.90;;;;;;4998621;28;20446;-65
2022/12/13 00:18:42;;;;;;;43.40;23.35;;;-5.00;99.90;;;;;;4998549;28;20046;-65
2022/12/13 00:21:12;;;;;;;35.65;21.42;;;-5.00;99.90;;;;;;4993906;28;20088;-65
2022/12/13 00:23:38;;;;;;;37.95;22.05;;;-5.00;99.90;;;;;;4998179;28;20045;-65
2022/12/13 00:26:10;;;;;;;37.63;22.63;;;-5.00;99.90;;;;;;4999012;28;20027;-65
2022/12/13 00:28:36;;;;;;;41.25;23.92;;;-5.10;99.90;;;;;;5000267;28;20153;-65
2022/12/13 00:31:02;;;;;;;38.50;22.27;;;-5.10;99.90;;;;;;4995466;28;20403;-65
2022/12/13 00:33:29;;;;;;;41.63;23.08;;;-5.10;99.90;;;;;;5027980;28;20033;-65
2022/12/13 00:35:54;;;;;;;41.28;21.88;;;-5.00;99.90;;;;;;4995389;28;20026;-65
2022/12/13 00:38:20;;;;;;;39.03;21.60;;;-5.00;99.90;;;;;;5000939;28;20203;-65
2022/12/13 00:40:46;;;;;;;34.35;20.55;;;-5.10;99.90;;;;;;4999994;28;20038;-64
2022/12/13 00:43:12;;;;;;;41.47;23.85;;;-5.10;99.90;;;;;;4997078;28;20475;-65
2022/12/13 00:45:38;;;;;;;34.33;21.70;;;-5.10;99.90;;;;;;5000287;28;20073;-65
2022/12/13 00:48:05;;;;;;;37.75;21.42;;;-5.10;99.90;;;;;;4997297;28;20106;-65
2022/12/13 00:50:31;;;;;;;35.85;21.30;;;-5.20;99.90;;;;;;4999636;28;20048;-65
2022/12/13 00:52:59;;;;;;;37.72;21.10;;;-5.20;99.90;;;;;;4995398;28;20139;-65
2022/12/13 00:55:24;;;;;;;39.35;21.85;;;-5.20;99.90;;;;;;4995602;28;20046;-65
2022/12/13 00:57:51;;;;;;;37.33;21.25;;;-5.20;99.90;;;;;;5000767;28;20160;-66
2022/12/13 01:00:17;;;;;;;34.33;20.50;;;-5.20;99.90;;;;;;5002319;28;20061;-65
2022/12/13 01:02:43;;;;;;;36.55;21.45;;;-5.20;99.90;;;;;;4998620;28;20425;-65
2022/12/13 01:05:10;;;;;;;40.60;21.73;;;-5.20;99.90;;;;;;5002912;28;20041;-65
2022/12/13 01:07:37;;;;;;;40.42;21.83;;;-5.20;99.90;;;;;;4999821;28;20042;-65
2022/12/13 01:10:04;;;;;;;36.80;22.20;;;-5.20;99.90;;;;;;4997640;28;20057;-65
2022/12/13 01:12:30;;;;;;;32.80;21.35;;;-5.20;99.90;;;;;;5001518;28;20348;-65
2022/12/13 01:14:56;;;;;;;37.20;21.83;;;-5.20;99.90;;;;;;4996875;28;20049;-65
2022/12/13 01:17:21;;;;;;;40.40;21.48;;;-5.30;99.90;;;;;;4996855;28;20404;-65
2022/12/13 01:19:47;;;;;;;36.60;22.58;;;-5.30;99.90;;;;;;4997993;28;20044;-65
2022/12/13 01:22:13;;;;;;;39.75;21.48;;;-5.30;99.90;;;;;;5001494;28;20069;-65
2022/12/13 01:24:38;;;;;;;37.42;22.63;;;-5.30;99.90;;;;;;4995804;28;20034;-65
2022/12/13 01:27:04;;;;;;;34.85;21.27;;;-5.30;99.90;;;;;;4999015;28;20042;-66
2022/12/13 01:29:30;;;;;;;40.20;22.05;;;-5.30;99.90;;;;;;5002270;28;20069;-65
2022/12/13 01:31:56;;;;;;;38.25;22.02;;;-5.30;99.90;;;;;;4997069;28;20398;-65
2022/12/13 01:34:23;;;;;;;37.25;22.90;;;-5.30;99.90;;;;;;4996275;28;20052;-65
2022/12/13 01:36:49;;;;;;;38.90;22.48;;;-5.30;99.90;;;;;;4993657;28;20034;-65
2022/12/13 01:39:18;;;;;;;39.17;23.05;;;-5.30;99.90;;;;;;5002166;28;20144;-65
2022/12/13 01:41:46;;;;;;;37.75;22.00;;;-5.30;99.90;;;;;;5002711;28;20050;-65
2022/12/13 01:44:49;;;;;;;38.40;21.88;;;-5.30;99.90;;;;;;5001488;28;20552;-65
2022/12/13 01:47:21;;;;;;;35.10;21.50;;;-5.30;99.90;;;;;;5003456;28;20469;-65
2022/12/13 01:49:47;;;;;;;40.65;22.65;;;-5.30;99.90;;;;;;4997333;28;20050;-65
2022/12/13 01:52:15;;;;;;;34.67;21.27;;;-5.40;99.90;;;;;;5002906;28;20042;-65
2022/12/13 01:54:54;;;;;;;38.28;21.52;;;-5.30;99.90;;;;;;5000810;28;20034;-64
2022/12/13 01:57:21;;;;;;;33.35;20.13;;;-5.30;99.90;;;;;;4995069;28;20451;-65
2022/12/13 01:59:49;;;;;;;35.00;20.95;;;-5.30;99.90;;;;;;5000810;28;20196;-65
2022/12/13 02:02:15;;;;;;;38.55;21.58;;;-5.30;99.90;;;;;;5001148;28;20045;-66
2022/12/13 02:04:59;;;;;;;34.75;21.88;;;-5.40;99.90;;;;;;4998480;28;20054;-65
2022/12/13 02:07:28;;;;;;;40.08;23.27;;;-5.40;99.90;;;;;;4998723;28;20216;-65
2022/12/13 02:09:58;;;;;;;37.50;21.85;;;-5.40;99.90;;;;;;5002954;28;20034;-65
2022/12/13 02:12:27;;;;;;;41.05;22.80;;;-5.40;99.90;;;;;;5001979;28;20033;-65
2022/12/13 02:14:54;;;;;;;37.05;22.70;;;-5.30;99.90;;;;;;5031208;28;20147;-65
2022/12/13 02:17:26;;;;;;;36.05;20.25;;;-5.40;99.90;;;;;;5000009;28;20065;-66
2022/12/13 02:20:14;;;;;;;36.33;21.00;;;-5.30;99.90;;;;;;4998462;28;20038;-65
2022/12/13 02:23:03;;;;;;;38.15;23.33;;;-5.40;99.90;;;;;;5001617;28;20311;-65
2022/12/13 02:25:34;;;;;;;37.60;22.23;;;-5.40;99.90;;;;;;5000522;28;20190;-65
2022/12/13 02:28:34;;;;;;;35.08;21.40;;;-5.40;99.90;;;;;;4999599;28;20046;-64
2022/12/13 02:31:12;;;;;;;38.55;21.08;;;-5.40;99.90;;;;;;4997467;28;20137;-65
2022/12/13 02:34:15;;;;;;;34.45;21.35;;;-5.40;99.90;;;;;;5031234;28;20050;-65
2022/12/13 02:36:49;;;;;;;37.10;22.13;;;-5.40;99.90;;;;;;4996571;28;20390;-65
2022/12/13 02:39:24;;;;;;;40.88;21.63;;;-5.50;99.90;;;;;;5007732;28;20073;-65
2022/12/13 02:41:54;;;;;;;40.58;22.98;;;-5.50;99.90;;;;;;5002165;28;20058;-65
2022/12/13 02:44:27;;;;;;;32.35;19.88;;;-5.50;99.90;;;;;;5005984;28;20073;-65
2022/12/13 02:47:07;;;;;;;38.85;21.83;;;-5.50;99.90;;;;;;4995818;28;20036;-65
2022/12/13 02:49:39;;;;;;;38.00;21.20;;;-5.50;99.90;;;;;;4995519;28;20628;-65
2022/12/13 02:52:08;;;;;;;37.65;21.20;;;-5.50;99.90;;;;;;4996305;28;20502;-65
2022/12/13 02:54:34;;;;;;;32.65;20.45;;;-5.50;99.90;;;;;;5003643;28;20419;-64
2022/12/13 02:57:00;;;;;;;39.30;20.88;;;-5.50;99.90;;;;;;4995790;28;20057;-64
2022/12/13 02:59:32;;;;;;;34.65;21.98;;;-5.50;99.90;;;;;;5005301;28;20058;-64
2022/12/13 03:02:08;;;;;;;38.33;21.73;;;-5.50;99.90;;;;;;4994866;28;20509;-64
2022/12/13 03:06:28;;;;;;;37.63;22.02;;;-5.60;99.90;;;;;;5001214;28;20081;-64
2022/12/13 03:07:38;;;;;;;37.28;21.60;;;-5.50;99.90;;;;;;4995021;28;20346;-64
2022/12/13 03:10:28;;;;;;;35.28;21.10;;;-5.50;99.90;;;;;;5002751;28;20119;-64
2022/12/13 03:16:00;;;;;;;39.78;21.52;;;-5.60;99.90;;;;;;4999263;28;20479;-64
2022/12/13 03:18:27;;;;;;;39.85;21.35;;;-5.60;99.90;;;;;;4999849;28;20549;-65
2022/12/13 03:20:59;;;;;;;39.45;21.30;;;-5.60;99.90;;;;;;4983421;28;20046;-65
2022/12/13 03:23:25;;;;;;;37.97;22.02;;;-5.60;99.90;;;;;;5003030;28;20405;-64
2022/12/13 03:25:55;;;;;;;38.78;21.25;;;-5.60;99.90;;;;;;4996983;28;20061;-65
2022/12/13 03:28:22;;;;;;;35.25;19.92;;;-5.60;99.90;;;;;;4998462;28;20294;-64
2022/12/13 03:30:48;;;;;;;32.28;19.65;;;-5.60;99.90;;;;;;4998772;28;20380;-65
2022/12/13 03:33:14;;;;;;;37.25;21.98;;;-5.60;99.90;;;;;;4996151;28;20044;-65
2022/12/13 03:35:42;;;;;;;41.08;21.23;;;-5.70;99.90;;;;;;4995974;28;20039;-65
2022/12/13 03:38:08;;;;;;;32.65;20.45;;;-5.70;99.90;;;;;;4999596;28;20051;-65
2022/12/13 03:40:34;;;;;;;40.00;23.33;;;-5.70;99.90;;;;;;4998755;28;20509;-65
2022/12/13 03:43:00;;;;;;;35.03;20.23;;;-5.60;99.90;;;;;;4998594;28;20065;-65
2022/12/13 03:45:26;;;;;;;37.35;20.35;;;-5.60;99.90;;;;;;4999147;28;20056;-65
2022/12/13 03:47:52;;;;;;;35.83;20.20;;;-5.60;99.90;;;;;;4995724;28;20038;-65
2022/12/13 03:50:17;;;;;;;40.65;19.67;;;-5.70;99.90;;;;;;5000521;28;20041;-65
2022/12/13 03:52:43;;;;;;;33.70;20.60;;;-5.70;99.90;;;;;;4994586;28;20041;-65
2022/12/13 03:55:09;;;;;;;34.50;19.67;;;-5.70;99.90;;;;;;4999592;28;20113;-65
2022/12/13 03:57:35;;;;;;;36.25;20.48;;;-5.80;99.90;;;;;;4982839;28;20042;-64
2022/12/13 04:00:02;;;;;;;30.10;19.27;;;-5.80;99.90;;;;;;5000636;28;20120;-64
2022/12/13 04:02:27;;;;;;;41.17;21.60;;;-5.90;99.90;;;;;;4996577;28;20046;-65
2022/12/13 04:04:53;;;;;;;37.72;22.08;;;-5.90;99.90;;;;;;4998091;28;20073;-65
2022/12/13 04:07:19;;;;;;;34.42;20.20;;;-5.90;99.90;;;;;;5002093;28;20035;-65
2022/12/13 04:09:44;;;;;;;32.83;20.70;;;-5.90;99.90;;;;;;4996222;28;20045;-65
2022/12/13 04:14:54;;;;;;;35.13;20.30;;;-5.90;99.90;;;;;;4993765;28;20456;-65
2022/12/13 04:17:20;;;;;;;32.85;20.02;;;-5.90;99.90;;;;;;4997947;28;20128;-65
2022/12/13 04:19:46;;;;;;;37.40;20.83;;;-6.00;99.90;;;;;;4997394;28;20132;-65
2022/12/13 04:22:11;;;;;;;32.35;20.35;;;-5.90;99.90;;;;;;5002159;28;20165;-65
2022/12/13 04:24:37;;;;;;;37.53;20.30;;;-5.90;99.90;;;;;;4996146;28;20099;-64
2022/12/13 04:27:03;;;;;;;38.08;20.67;;;-5.90;99.90;;;;;;4999374;28;20085;-65
2022/12/13 04:29:29;;;;;;;38.17;20.38;;;-5.90;99.90;;;;;;4999236;28;20124;-65
2022/12/13 04:31:54;;;;;;;37.10;20.48;;;-5.90;99.90;;;;;;5004359;28;20076;-65
2022/12/13 04:34:20;;;;;;;38.05;21.95;;;-5.90;99.90;;;;;;4994950;28;20084;-65
2022/12/13 04:36:46;;;;;;;40.30;21.40;;;-5.90;99.90;;;;;;5000130;28;20044;-65
2022/12/13 04:39:12;;;;;;;38.75;21.92;;;-5.90;99.90;;;;;;5000579;28;20100;-65
2022/12/13 04:41:38;;;;;;;34.75;21.65;;;-5.90;99.90;;;;;;4997065;28;20038;-65
2022/12/13 04:44:07;;;;;;;40.33;22.95;;;-5.80;99.90;;;;;;4997105;28;20390;-65
2022/12/13 04:46:33;;;;;;;39.45;23.25;;;-5.90;99.90;;;;;;4995376;28;20114;-65
2022/12/13 04:48:59;;;;;;;35.25;21.45;;;-5.80;99.90;;;;;;4996325;28;20034;-65
2022/12/13 04:51:25;;;;;;;36.38;20.80;;;-5.90;99.90;;;;;;5001132;28;20038;-65
2022/12/13 04:57:32;;;;;;;35.50;19.58;;;-5.90;99.90;;;;;;5000417;28;20422;-65
2022/12/13 04:59:58;;;;;;;38.63;20.67;;;-5.90;99.90;;;;;;4990876;28;20391;-64
2022/12/13 05:02:24;;;;;;;37.67;20.38;;;-5.90;99.90;;;;;;4997158;28;20422;-65
2022/12/13 05:04:50;;;;;;;42.08;21.15;;;-6.00;99.90;;;;;;5000789;28;20049;-65
2022/12/13 05:07:16;;;;;;;36.75;22.15;;;-6.00;99.90;;;;;;5000581;28;20444;-65
2022/12/13 05:09:42;;;;;;;41.72;21.67;;;-6.00;99.90;;;;;;5002421;28;20031;-65
2022/12/13 05:12:08;;;;;;;39.08;21.30;;;-6.00;99.90;;;;;;4996954;28;20494;-65
2022/12/13 05:14:33;;;;;;;37.58;20.95;;;-6.00;99.90;;;;;;5003089;28;20038;-65
2022/12/13 05:17:00;;;;;;;37.97;20.67;;;-6.00;99.90;;;;;;4997024;28;20060;-64
2022/12/13 05:19:26;;;;;;;35.80;21.25;;;-6.00;99.90;;;;;;5001203;28;20078;-64
2022/12/13 05:21:52;;;;;;;34.92;20.50;;;-6.00;99.90;;;;;;5002079;28;20040;-65
2022/12/13 05:24:18;;;;;;;35.65;20.30;;;-6.10;99.90;;;;;;4986139;28;20102;-65
2022/12/13 05:26:43;;;;;;;39.45;20.98;;;-6.10;99.90;;;;;;4997921;28;20422;-65
2022/12/13 05:29:10;;;;;;;37.05;20.40;;;-6.10;99.90;;;;;;4999267;28;20042;-64
2022/12/13 05:31:35;;;;;;;33.85;20.33;;;-6.10;99.90;;;;;;5000327;28;20103;-64
2022/12/13 05:34:01;;;;;;;33.40;21.23;;;-6.10;99.90;;;;;;5004012;28;20367;-65
2022/12/13 05:36:27;;;;;;;46.33;23.45;;;-6.10;99.90;;;;;;5002821;28;20065;-64
2022/12/13 05:38:53;;;;;;;38.60;21.92;;;-6.10;99.90;;;;;;5000972;28;20030;-65
2022/12/13 05:41:23;;;;;;;36.78;21.90;;;-6.10;99.90;;;;;;4998938;28;20030;-65
2022/12/13 05:43:49;;;;;;;36.45;21.30;;;-6.10;99.90;;;;;;5002118;28;20031;-64
2022/12/13 05:46:15;;;;;;;38.03;21.92;;;-6.10;99.90;;;;;;4994959;28;20046;-64
2022/12/13 05:48:41;;;;;;;42.42;22.88;;;-6.10;99.90;;;;;;5002454;28;20068;-65
2022/12/13 05:51:07;;;;;;;36.63;21.90;;;-6.10;99.90;;;;;;5000546;28;20104;-65
2022/12/13 05:53:33;;;;;;;43.25;24.17;;;-6.00;99.90;;;;;;4999705;28;20071;-64
2022/12/13 05:56:02;;;;;;;42.33;25.83;;;-6.00;99.90;;;;;;5005062;28;20033;-65
2022/12/13 05:58:28;;;;;;;43.28;24.35;;;-6.00;99.90;;;;;;4997058;28;20163;-65
2022/12/13 06:00:54;;;;;;;46.05;24.88;;;-6.00;99.90;;;;;;5005286;28;20092;-65
2022/12/13 06:03:19;;;;;;;44.50;25.63;;;-5.90;99.90;;;;;;4998928;28;20037;-64
2022/12/13 06:05:46;;;;;;;45.38;25.05;;;-5.90;99.90;;;;;;5003935;28;20113;-64
2022/12/13 06:08:11;;;;;;;42.38;25.05;;;-5.80;99.90;;;;;;5004707;28;20057;-65
2022/12/13 06:10:37;;;;;;;45.63;25.10;;;-5.80;99.90;;;;;;5005802;28;20447;-64
2022/12/13 06:13:04;;;;;;;48.92;26.63;;;-5.80;99.90;;;;;;5004327;28;20048;-65
2022/12/13 06:15:30;;;;;;;45.45;25.75;;;-5.80;99.90;;;;;;5003770;28;20126;-64
2022/12/13 06:17:59;;;;;;;41.50;25.55;;;-5.80;99.90;;;;;;5030446;28;20080;-65
2022/12/13 06:20:25;;;;;;;49.17;26.90;;;-5.90;99.90;;;;;;4999201;28;20050;-65
2022/12/13 06:22:52;;;;;;;45.28;25.05;;;-5.90;99.90;;;;;;4998824;28;20042;-65
2022/12/13 06:25:18;;;;;;;46.78;25.77;;;-5.90;99.90;;;;;;5000948;28;20042;-65
2022/12/13 06:27:44;;;;;;;52.67;26.70;;;-5.90;99.90;;;;;;4998316;28;20343;-64
2022/12/13 06:30:10;;;;;;;47.28;26.33;;;-5.90;99.90;;;;;;4997597;28;20100;-65
2022/12/13 06:32:36;;;;;;;48.47;26.67;;;-5.90;99.90;;;;;;4992070;28;20113;-65
2022/12/13 06:35:01;;;;;;;65.13;29.13;;;-5.80;99.90;;;;;;4996288;28;20117;-65
2022/12/13 06:37:27;;;;;;;47.90;26.40;;;-5.80;99.90;;;;;;4995272;28;20615;-65
2022/12/13 06:39:53;;;;;;;44.47;28.05;;;-5.80;99.90;;;;;;4994586;28;20054;-65
2022/12/13 06:42:19;;;;;;;50.20;28.30;;;-5.80;99.90;;;;;;4998595;28;20434;-64
2022/12/13 06:44:44;;;;;;;51.35;26.88;;;-5.80;99.90;;;;;;5031705;28;20107;-64
2022/12/13 06:47:11;;;;;;;46.83;25.92;;;-5.80;99.90;;;;;;4992654;28;20495;-64
2022/12/13 06:49:37;;;;;;;49.05;27.13;;;-5.70;99.90;;;;;;4982008;28;20088;-65
2022/12/13 06:52:03;;;;;;;52.38;27.40;;;-5.70;99.90;;;;;;4993733;28;20489;-64
2022/12/13 06:54:29;;;;;;;47.20;26.50;;;-5.70;99.90;;;;;;5000438;28;20037;-65
2022/12/13 06:56:54;;;;;;;50.65;25.98;;;-5.80;99.90;;;;;;4999290;28;20120;-65
2022/12/13 06:59:20;;;;;;;49.50;26.45;;;-5.80;99.90;;;;;;5000123;28;20501;-65
2022/12/13 07:01:46;;;;;;;48.45;28.25;;;-5.80;99.90;;;;;;4997259;28;20062;-65
2022/12/13 07:04:12;;;;;;;50.90;25.95;;;-5.80;99.90;;;;;;4998539;28;20120;-65
2022/12/13 07:06:37;;;;;;;49.75;26.33;;;-5.80;99.90;;;;;;4997438;28;20087;-65
2022/12/13 07:09:04;;;;;;;49.22;26.27;;;-5.80;99.90;;;;;;5028641;28;20049;-64
2022/12/13 07:11:32;;;;;;;48.60;26.67;;;-5.80;99.90;;;;;;4995307;28;20034;-65
2022/12/13 07:13:58;;;;;;;49.10;26.17;;;-5.80;99.90;;;;;;4997330;28;20069;-64
2022/12/13 07:16:25;;;;;;;47.03;25.83;;;-5.80;99.90;;;;;;4994458;28;20081;-64
2022/12/13 07:18:58;;;;;;;51.58;27.63;;;-5.90;99.90;;;;;;4999966;28;20136;-63
2022/12/13 07:21:25;;;;;;;52.50;26.30;;;-5.90;99.90;;;;;;4999796;28;20427;-64
2022/12/13 07:23:50;;;;;;;53.03;25.95;;;-5.90;99.90;;;;;;4997873;28;20033;-64
2022/12/13 07:26:17;;;;;;;52.63;27.33;;;-5.90;99.90;;;;;;4995256;28;20029;-65
2022/12/13 07:28:43;;;;;;;58.78;28.90;;;-5.90;99.90;;;;;;4999857;28;20041;-65
2022/12/13 07:31:09;;;;;;;51.47;27.88;;;-5.90;99.90;;;;;;4998720;28;20042;-64
2022/12/13 07:33:35;;;;;;;51.75;28.40;;;-5.90;99.90;;;;;;4999833;28;20444;-64
2022/12/13 07:36:10;;;;;;;46.90;26.52;;;-5.90;99.90;;;;;;4997488;28;20450;-64
2022/12/13 07:38:36;;;;;;;47.85;27.40;;;-5.90;99.90;;;;;;5003954;28;20034;-64
2022/12/13 07:41:04;;;;;;;53.40;27.58;;;-5.80;99.90;;;;;;4999525;28;20433;-64
2022/12/13 07:43:31;;;;;;;49.13;26.00;;;-5.80;99.90;;;;;;4998113;28;20042;-64
2022/12/13 07:45:58;;;;;;;51.45;27.75;;;-5.80;99.90;;;;;;4992550;28;20053;-64
2022/12/13 07:48:25;;;;;;;55.72;28.58;;;-5.80;99.90;;;;;;4998847;28;20461;-64
2022/12/13 07:50:51;;;;;;;49.33;26.90;;;-5.80;99.90;;;;;;4998273;28;20487;-63
2022/12/13 07:53:17;;;;;;;49.85;27.33;;;-5.80;99.90;;;;;;4997871;28;20038;-64
2022/12/13 07:55:43;;;;;;;52.30;28.83;;;-5.70;99.90;;;;;;5000698;28;20401;-64
2022/12/13 07:58:11;;;;;;;55.28;29.90;;;-5.70;99.90;;;;;;5001262;28;20042;-64
2022/12/13 08:00:38;;;;;;;54.65;30.83;;;-5.70;99.90;;;;;;4995734;28;20137;-63
2022/12/13 08:03:04;;;;;;;62.65;32.47;;;-5.70;99.90;;;;;;5000647;28;20033;-63
2022/12/13 08:05:30;;;;;;;59.25;33.03;;;-5.60;99.90;;;;;;5001360;28;20030;-64
2022/12/13 08:07:56;;;;;;;63.70;30.77;;;-5.60;99.90;;;;;;4998493;28;20434;-63
2022/12/13 08:10:22;;;;;;;65.45;34.47;;;-5.50;99.90;;;;;;4997376;28;20160;-64
2022/12/13 08:12:49;;;;;;;59.20;30.98;;;-5.50;99.90;;;;;;4995240;28;20460;-64
2022/12/13 08:15:16;;;;;;;65.25;32.90;;;-5.40;99.90;;;;;;4997248;28;20442;-65
2022/12/13 08:17:42;;;;;;;60.17;31.27;;;-5.40;99.90;;;;;;4992741;28;20540;-65
2022/12/13 08:20:08;;;;;;;60.75;31.42;;;-5.30;99.90;;;;;;5000100;28;20057;-65
2022/12/13 08:22:34;;;;;;;55.28;29.88;;;-5.30;99.90;;;;;;4993534;28;20064;-64
2022/12/13 08:25:00;;;;;;;57.10;29.15;;;-5.20;99.90;;;;;;4995466;28;20042;-65
2022/12/13 08:27:26;;;;;;;57.35;30.73;;;-5.20;99.90;;;;;;4996164;28;20077;-65
2022/12/13 08:29:52;;;;;;;60.30;31.80;;;-5.20;99.90;;;;;;4996222;28;20110;-65
2022/12/13 08:32:18;;;;;;;59.05;32.25;;;-5.10;99.90;;;;;;4996326;28;20177;-64
2022/12/13 08:34:44;;;;;;;57.70;30.77;;;-5.10;99.90;;;;;;4996165;28;20114;-65
2022/12/13 08:37:11;;;;;;;64.25;30.92;;;-5.00;99.90;;;;;;5014680;28;20639;-65
2022/12/13 08:39:38;;;;;;;57.65;31.60;;;-4.90;99.90;;;;;;5001448;28;20040;-65
2022/12/13 08:42:06;;;;;;;58.50;29.83;;;-4.90;99.90;;;;;;5028468;28;20067;-65
2022/12/13 08:44:32;;;;;;;59.97;30.83;;;-4.80;99.90;;;;;;5000052;28;20449;-65
2022/12/13 08:46:57;;;;;;;55.33;28.80;;;-4.80;99.90;;;;;;4995856;28;20043;-64
2022/12/13 08:49:23;;;;;;;54.78;30.77;;;-4.70;99.90;;;;;;5019489;28;20413;-63
2022/12/13 08:51:49;;;;;;;57.47;32.22;;;-4.70;99.90;;;;;;4998241;28;20124;-64
2022/12/13 08:54:14;;;;;;;55.97;30.95;;;-4.60;99.90;;;;;;5012856;28;20048;-65
2022/12/13 08:56:40;;;;;;;56.90;31.25;;;-4.60;99.90;;;;;;5000274;28;20041;-65
2022/12/13 08:59:06;;;;;;;55.72;31.98;;;-4.60;99.90;;;;;;4995070;28;20047;-65
2022/12/13 09:01:32;;;;;;;58.45;32.03;;;-4.50;99.90;;;;;;4998270;28;20054;-65
2022/12/13 09:03:58;;;;;;;51.83;30.65;;;-4.50;99.90;;;;;;4996832;28;20072;-65
2022/12/13 09:06:24;;;;;;;55.75;31.50;;;-4.40;99.90;;;;;;4997754;28;20046;-64
2022/12/13 09:08:52;;;;;;;55.75;30.42;;;-4.40;99.90;;;;;;4997593;28;20038;-64
2022/12/13 09:11:18;;;;;;;57.35;30.00;;;-4.30;99.90;;;;;;4994125;28;20608;-64
2022/12/13 09:13:44;;;;;;;61.90;32.85;;;-4.30;99.90;;;;;;4994071;28;20094;-65
2022/12/13 09:16:17;;;;;;;57.80;32.05;;;-4.20;99.90;;;;;;4997955;28;20040;-65
2022/12/13 09:18:42;;;;;;;58.60;33.53;;;-4.20;99.90;;;;;;4993007;28;20049;-65
2022/12/13 09:21:10;;;;;;;56.92;32.83;;;-4.20;99.90;;;;;;4991276;28;20671;-65
2022/12/13 09:23:36;;;;;;;54.72;31.70;;;-4.10;99.90;;;;;;4996611;28;20038;-65
2022/12/13 09:26:02;;;;;;;57.20;31.63;;;-4.00;99.90;;;;;;4999241;28;20056;-65
2022/12/13 09:28:29;;;;;;;53.95;30.50;;;-4.00;99.90;;;;;;5003230;28;20478;-65
2022/12/13 09:30:57;;;;;;;61.45;32.72;;;-4.00;99.90;;;;;;4998078;28;20034;-65
2022/12/13 09:33:23;;;;;;;57.70;31.67;;;-3.90;99.90;;;;;;5003949;28;20030;-65
2022/12/13 09:35:50;;;;;;;60.92;32.83;;;-3.90;99.90;;;;;;5001559;28;20034;-65
2022/12/13 09:38:16;;;;;;;62.47;33.85;;;-3.80;99.90;;;;;;4999631;28;20045;-65
2022/12/13 09:40:45;;;;;;;55.65;31.35;;;-3.80;99.90;;;;;;5001920;28;20390;-65
2022/12/13 09:43:38;;;;;;;55.00;33.85;;;-3.70;99.90;;;;;;4998855;28;20359;-65
2022/12/13 09:46:10;;;;;;;57.92;33.47;;;-3.70;99.90;;;;;;4996990;28;20081;-65
2022/12/13 09:48:36;;;;;;;62.67;33.20;;;-3.60;99.90;;;;;;5001240;28;20037;-66
2022/12/13 09:51:02;;;;;;;55.22;31.85;;;-3.60;99.90;;;;;;4999274;28;20045;-65
2022/12/13 09:53:28;;;;;;;52.53;32.50;;;-3.50;99.90;;;;;;5002877;28;20042;-65
2022/12/13 09:55:54;;;;;;;59.17;33.83;;;-3.50;99.90;;;;;;4998243;28;20065;-65
2022/12/13 09:58:24;;;;;;;57.72;32.67;;;-3.40;99.90;;;;;;5004250;28;20045;-65
2022/12/13 10:00:53;;;;;;;55.53;32.17;;;-3.40;99.90;;;;;;4999967;28;20058;-65
2022/12/13 10:03:21;;;;;;;59.75;31.77;;;-3.30;99.90;;;;;;5002074;28;20156;-65
2022/12/13 10:05:59;;;;;;;57.80;33.60;;;-3.20;99.90;;;;;;5001599;28;20042;-66
2022/12/13 10:08:46;;;;;;;58.88;33.33;;;-3.20;99.90;;;;;;5001751;28;20042;-65
2022/12/13 10:11:13;;;;;;;57.05;32.55;;;-3.10;99.90;;;;;;5004047;28;20129;-65
2022/12/13 10:13:43;;;;;;;57.95;34.15;;;-3.00;99.90;;;;;;5001711;28;20110;-66
2022/12/13 10:16:15;;;;;;;58.17;33.45;;;-3.00;99.90;;;;;;5000290;28;20035;-65
2022/12/13 10:18:42;;;;;;;56.00;33.28;;;-2.90;99.90;;;;;;5030172;28;20564;-65
2022/12/13 10:21:19;;;;;;;59.30;34.88;;;-2.90;99.90;;;;;;4997343;28;20398;-66
2022/12/13 10:23:45;;;;;;;54.47;32.85;;;-2.80;99.90;;;;;;5003890;28;20066;-65
2022/12/13 10:26:12;;;;;;;62.80;34.45;;;-2.80;99.90;;;;;;4995647;28;20077;-65
2022/12/13 10:28:39;;;;;;;56.88;34.47;;;-2.70;99.90;;;;;;5002274;28;20037;-65
2022/12/13 10:31:06;;;;;;;55.25;32.85;;;-2.70;99.90;;;;;;4997304;28;20030;-65
2022/12/13 10:33:49;;;;;;;57.38;32.20;;;-2.60;99.90;;;;;;4995782;28;20049;-66
2022/12/13 10:36:37;;;;;;;54.92;32.35;;;-2.60;99.90;;;;;;4993246;28;20042;-65
2022/12/13 10:39:03;;;;;;;52.80;32.80;;;-2.60;99.90;;;;;;5000879;28;20452;-65
2022/12/13 10:41:36;;;;;;;53.65;31.48;;;-2.50;99.90;;;;;;5000826;28;20050;-65
2022/12/13 10:44:11;;;;;;;50.72;31.42;;;-2.50;99.90;;;;;;5029086;28;20466;-66
2022/12/13 10:46:47;;;;;;;55.22;31.90;;;-2.50;99.90;;;;;;4996863;28;20447;-65
2022/12/13 10:49:24;;;;;;;49.13;31.23;;;-2.40;99.90;;;;;;4996601;28;20039;-65
2022/12/13 10:51:52;;;;;;;67.78;35.85;;;-2.40;99.90;;;;;;5000892;28;20034;-65
2022/12/13 10:54:36;;;;;;;55.45;32.55;;;-2.40;99.90;;;;;;4996413;28;20085;-65
2022/12/13 10:57:03;;;;;;;52.60;31.03;;;-2.40;99.90;;;;;;4996190;28;20042;-65
2022/12/13 10:59:37;;;;;;;56.80;32.30;;;-2.30;99.90;;;;;;5003478;28;20037;-65
2022/12/13 11:02:30;;;;;;;54.67;31.65;;;-2.30;99.90;;;;;;4999704;28;20065;-65
2022/12/13 11:04:57;;;;;;;51.72;31.77;;;-2.30;99.90;;;;;;4997991;28;20045;-65
2022/12/13 11:07:30;;;;;;;51.40;30.45;;;-2.20;99.90;;;;;;4995878;28;21436;-65
2022/12/13 11:09:58;;;;;;;49.72;30.55;;;-2.20;99.90;;;;;;4998679;28;20041;-65
2022/12/13 11:12:25;;;;;;;51.03;31.10;;;-2.10;99.90;;;;;;4997715;28;20513;-66
2022/12/13 11:15:05;;;;;;;51.33;30.70;;;-2.10;99.90;;;;;;4999749;28;20328;-65
2022/12/13 11:17:34;;;;;;;48.70;30.83;;;-2.10;99.90;;;;;;4994577;28;20055;-65
2022/12/13 11:20:03;;;;;;;51.38;31.98;;;-2.00;99.90;;;;;;5000623;28;20050;-65
2022/12/13 11:22:34;;;;;;;58.78;31.95;;;-2.00;99.90;;;;;;5002287;28;20091;-66
2022/12/13 11:25:22;;;;;;;58.22;33.53;;;-2.00;99.90;;;;;;5006981;28;20041;-65
2022/12/13 11:28:14;;;;;;;57.08;32.83;;;-2.00;99.90;;;;;;4999290;28;20081;-65
2022/12/13 11:31:09;;;;;;;60.55;32.80;;;-1.90;99.90;;;;;;4999582;28;20081;-65
2022/12/13 11:33:44;;;;;;;52.78;31.02;;;-1.90;99.90;;;;;;5000886;28;20035;-65
2022/12/13 11:36:19;;;;;;;66.35;33.60;;;-1.90;99.90;;;;;;5002431;28;20042;-65
2022/12/13 11:38:53;;;;;;;62.25;34.53;;;-1.90;99.90;;;;;;4997821;28;20137;-66
2022/12/13 11:41:28;;;;;;;;;;;-1.80;99.90;;;;;;5029490;28;20042;-65
2022/12/13 11:44:02;;;;;;;49.50;31.43;;;-1.80;99.90;;;;;;5000832;28;20230;-65
2022/12/13 11:46:40;;;;;;;56.53;33.40;;;-1.80;99.90;;;;;;5033599;28;20120;-65
2022/12/13 11:49:17;;;;;;;52.85;31.55;;;-1.80;99.90;;;;;;4992647;28;20035;-65
2022/12/13 11:52:22;;;;;;;52.42;32.00;;;-1.70;99.90;;;;;;4996287;28;20050;-66
2022/12/13 11:55:03;;;;;;;48.38;29.95;;;-1.70;99.90;;;;;;5002159;28;20143;-66
2022/12/13 11:57:38;;;;;;;45.03;29.23;;;-1.70;99.90;;;;;;5006760;28;20040;-65
2022/12/13 12:00:16;;;;;;;45.33;29.95;;;-1.70;99.90;;;;;;4997865;28;20491;-65
2022/12/13 12:02:48;;;;;;;42.72;27.13;;;-1.70;99.90;;;;;;5003426;28;20753;-65
2022/12/13 12:05:27;;;;;;;43.92;29.40;;;-1.60;99.90;;;;;;4998098;28;20540;-65
2022/12/13 12:08:32;;;;;;;42.72;29.13;;;-1.60;99.90;;;;;;4999868;28;20046;-65
2022/12/13 12:11:26;;;;;;;44.57;29.33;;;-1.60;99.90;;;;;;5000959;28;20096;-65
2022/12/13 12:14:12;;;;;;;43.65;28.55;;;-1.50;99.90;;;;;;4999164;28;20042;-66
2022/12/13 12:16:43;;;;;;;43.42;28.45;;;-1.50;99.90;;;;;;4997308;28;20121;-65
2022/12/13 12:19:19;;;;;;;39.58;28.05;;;-1.50;99.90;;;;;;4997583;28;20419;-66
2022/12/13 12:22:10;;;;;;;47.28;29.33;;;-1.50;99.90;;;;;;5000868;28;20529;-65
2022/12/13 12:24:54;;;;;;;41.47;27.17;;;-1.40;99.90;;;;;;5001732;28;20033;-65
2022/12/13 12:27:42;;;;;;;44.42;28.08;;;-1.50;99.90;;;;;;4998731;28;20152;-65
2022/12/13 12:30:13;;;;;;;42.80;28.30;;;-1.40;99.90;;;;;;4995783;28;20048;-65
2022/12/13 12:32:51;;;;;;;39.00;27.20;;;-1.40;99.90;;;;;;4997833;28;20032;-65
2022/12/13 12:35:31;;;;;;;45.00;29.45;;;-1.40;99.90;;;;;;4999389;28;20096;-65
2022/12/13 12:38:28;;;;;;;44.95;28.38;;;-1.30;99.90;;;;;;4999492;28;20111;-65
2022/12/13 12:41:21;;;;;;;42.58;27.70;;;-1.30;99.90;;;;;;4995948;28;20057;-65
2022/12/13 12:44:12;;;;;;;40.10;27.08;;;-1.30;99.90;;;;;;5000371;28;20138;-65
2022/12/13 12:46:41;;;;;;;41.40;27.40;;;-1.30;99.90;;;;;;5002535;28;20049;-65
2022/12/13 12:49:31;;;;;;;41.88;26.67;;;-1.30;99.90;;;;;;5002667;28;20034;-66
2022/12/13 12:52:28;;;;;;;38.75;26.52;;;-1.20;99.90;;;;;;4998183;28;20091;-65